Time;durP1;ratioP1;P1;durP2;ratioP2;P2;SDS_P1;SDS_P2;PMS_P1;PMS_P2;Temp;Humidity;BMP_temperature;BMP_pressure;BME280_temperature;BME280_humidity;BME280_pressure;Samples;Min_cycle;Max_cycle;Signal;HPM_P1;HPM_P2
2021/01/15 00:02:03;;;;;;;14.20;8.98;;;1.30;93.50;;;;;;5052230;28;20226;-78
2021/01/15 00:04:31;;;;;;;12.00;10.25;;;1.40;93.60;;;;;;5039999;28;20240;-78
2021/01/15 00:06:59;;;;;;;11.18;9.30;;;1.40;93.50;;;;;;5050988;28;20200;-78
2021/01/15 00:09:25;;;;;;;14.65;10.32;;;1.40;93.50;;;;;;5052108;28;20239;-78
2021/01/15 00:11:51;;;;;;;16.33;9.70;;;1.30;93.50;;;;;;5052514;28;20247;-78
2021/01/15 00:14:18;;;;;;;14.43;9.85;;;1.30;93.50;;;;;;5053074;28;20228;-78
2021/01/15 00:16:44;;;;;;;16.75;11.10;;;1.40;93.80;;;;;;5052196;28;20218;-78
2021/01/15 00:19:11;;;;;;;17.20;11.20;;;1.30;93.30;;;;;;5051107;28;20204;-78
2021/01/15 00:21:47;;;;;;;13.13;9.98;;;1.40;93.50;;;;;;5052038;28;20242;-78
2021/01/15 00:24:15;;;;;;;16.00;11.35;;;1.30;93.30;;;;;;5052013;28;20289;-78
2021/01/15 00:26:43;;;;;;;12.73;10.07;;;1.30;93.30;;;;;;5052672;28;20585;-78
2021/01/15 00:29:10;;;;;;;23.13;10.30;;;1.30;93.20;;;;;;5051396;28;20215;-78
2021/01/15 00:31:39;;;;;;;11.88;9.27;;;1.30;93.10;;;;;;5050405;28;20576;-78
2021/01/15 00:34:07;;;;;;;12.20;9.32;;;1.30;93.00;;;;;;5051229;28;20199;-79
2021/01/15 00:36:34;;;;;;;13.02;9.70;;;1.30;93.00;;;;;;5052010;28;20203;-78
2021/01/15 00:39:01;;;;;;;16.75;10.55;;;1.20;93.40;;;;;;5050702;28;20192;-78
2021/01/15 00:41:28;;;;;;;12.05;8.98;;;1.30;93.30;;;;;;5051713;28;20234;-79
2021/01/15 00:43:54;;;;;;;14.07;9.27;;;1.30;93.10;;;;;;5051394;28;20235;-78
2021/01/15 00:46:33;;;;;;;12.15;9.65;;;1.40;92.90;;;;;;5051634;28;20370;-78
2021/01/15 00:49:00;;;;;;;11.45;8.98;;;1.40;92.90;;;;;;5050478;28;20200;-79
2021/01/15 00:51:27;;;;;;;12.73;9.68;;;1.40;93.10;;;;;;5051826;28;20234;-79
2021/01/15 00:53:53;;;;;;;10.43;7.95;;;1.40;92.60;;;;;;5051386;28;20632;-78
2021/01/15 00:56:21;;;;;;;10.68;8.90;;;1.30;92.50;;;;;;5050860;28;20253;-78
2021/01/15 00:58:47;;;;;;;13.63;9.45;;;1.30;92.30;;;;;;5050482;28;20251;-78
2021/01/15 01:01:15;;;;;;;10.23;8.77;;;1.40;92.30;;;;;;5050980;28;20211;-78
2021/01/15 01:03:42;;;;;;;12.68;9.10;;;1.30;92.10;;;;;;5050826;28;20607;-78
2021/01/15 01:06:10;;;;;;;12.43;8.38;;;1.40;92.00;;;;;;5051023;28;20349;-79
2021/01/15 01:08:36;;;;;;;11.75;8.35;;;1.20;91.80;;;;;;5050584;28;20269;-78
2021/01/15 01:11:04;;;;;;;10.63;8.52;;;1.20;91.90;;;;;;5051015;28;20266;-78
2021/01/15 01:13:31;;;;;;;9.23;6.30;;;1.20;91.80;;;;;;5050947;28;20251;-78
2021/01/15 01:15:57;;;;;;;9.40;7.10;;;1.20;91.70;;;;;;5050619;28;20211;-78
2021/01/15 01:18:24;;;;;;;10.80;8.60;;;1.20;91.50;;;;;;5050339;28;20693;-78
2021/01/15 01:20:50;;;;;;;8.45;7.43;;;1.20;91.10;;;;;;5050686;28;20200;-78
2021/01/15 01:23:16;;;;;;;11.57;8.13;;;1.20;91.10;;;;;;5051430;28;20274;-78
2021/01/15 01:25:43;;;;;;;7.30;6.35;;;1.20;91.30;;;;;;5050949;28;20235;-78
2021/01/15 01:28:09;;;;;;;9.70;6.00;;;1.20;91.30;;;;;;5049862;28;20189;-78
2021/01/15 01:30:37;;;;;;;8.18;6.40;;;1.20;91.20;;;;;;5051077;28;20204;-78
2021/01/15 01:33:04;;;;;;;6.57;5.97;;;1.00;90.70;;;;;;5049407;28;20200;-78
2021/01/15 01:35:30;;;;;;;6.90;6.03;;;1.20;91.00;;;;;;5050598;28;20253;-78
2021/01/15 01:37:57;;;;;;;7.88;5.55;;;1.20;90.60;;;;;;5049510;28;20248;-79
2021/01/15 01:40:23;;;;;;;6.85;5.97;;;1.20;90.40;;;;;;5050728;28;20246;-78
2021/01/15 01:42:49;;;;;;;8.75;6.15;;;1.10;90.50;;;;;;5049936;28;20203;-78
2021/01/15 01:45:16;;;;;;;6.80;4.80;;;1.20;90.40;;;;;;5050809;28;20235;-78
2021/01/15 01:47:44;;;;;;;8.35;5.80;;;1.20;90.30;;;;;;5049125;28;20275;-78
2021/01/15 01:50:11;;;;;;;6.45;5.20;;;1.20;90.30;;;;;;5050053;28;20235;-79
2021/01/15 01:52:38;;;;;;;6.40;5.53;;;1.20;90.20;;;;;;5051302;28;20547;-78
2021/01/15 01:55:05;;;;;;;8.15;5.68;;;1.20;90.50;;;;;;5050021;28;20281;-79
2021/01/15 01:57:33;;;;;;;6.53;5.20;;;1.30;90.00;;;;;;5050421;28;20265;-78
2021/01/15 02:00:00;;;;;;;6.60;5.38;;;1.30;89.80;;;;;;5050828;28;20200;-78
2021/01/15 02:02:27;;;;;;;5.38;4.78;;;1.20;88.60;;;;;;5050029;28;20243;-78
2021/01/15 02:04:55;;;;;;;8.02;5.40;;;1.30;88.90;;;;;;5049866;28;20199;-78
2021/01/15 02:07:22;;;;;;;6.13;5.60;;;1.30;88.60;;;;;;5049907;28;20262;-78
2021/01/15 02:09:58;;;;;;;6.18;4.78;;;1.30;88.10;;;;;;5050432;28;20204;-79
2021/01/15 02:12:37;;;;;;;7.25;5.55;;;1.30;88.50;;;;;;5050870;28;20195;-78
2021/01/15 02:15:10;;;;;;;6.13;5.07;;;1.20;88.20;;;;;;5050077;28;20353;-79
2021/01/15 02:17:42;;;;;;;4.88;4.47;;;1.30;88.80;;;;;;5049708;28;20222;-78
2021/01/15 02:20:24;;;;;;;5.25;4.45;;;1.20;88.80;;;;;;5049487;28;20227;-78
2021/01/15 02:23:10;;;;;;;5.25;4.75;;;1.30;88.70;;;;;;5049983;28;20196;-78
2021/01/15 02:26:09;;;;;;;5.60;5.10;;;1.30;88.10;;;;;;5050105;28;20200;-78
2021/01/15 02:29:04;;;;;;;6.40;4.88;;;1.30;88.10;;;;;;5048088;28;20208;-78
2021/01/15 02:32:07;;;;;;;5.07;3.80;;;1.30;87.80;;;;;;5048547;28;20203;-79
2021/01/15 02:34:53;;;;;;;5.13;4.30;;;1.20;87.60;;;;;;5049853;28;20204;-78
2021/01/15 02:37:24;;;;;;;3.95;3.65;;;1.20;87.90;;;;;;5049610;28;20222;-79
2021/01/15 02:40:02;;;;;;;5.32;4.32;;;1.10;87.60;;;;;;5042287;28;20203;-78
2021/01/15 02:42:34;;;;;;;4.50;4.10;;;1.10;88.00;;;;;;5047235;28;20199;-78
2021/01/15 02:45:05;;;;;;;4.93;4.53;;;1.00;87.30;;;;;;5049482;28;20192;-78
2021/01/15 02:47:46;;;;;;;4.30;3.90;;;1.10;87.20;;;;;;5049414;28;20230;-78
2021/01/15 02:50:17;;;;;;;5.30;4.10;;;1.10;86.90;;;;;;5049766;28;20280;-78
2021/01/15 02:52:45;;;;;;;3.97;3.60;;;1.10;86.60;;;;;;5049895;28;20432;-78
2021/01/15 02:55:13;;;;;;;4.88;3.78;;;1.10;86.30;;;;;;5050897;28;20688;-79
2021/01/15 02:57:42;;;;;;;5.00;4.60;;;1.10;85.50;;;;;;5048668;28;20227;-78
2021/01/15 03:00:11;;;;;;;3.70;3.40;;;1.00;85.50;;;;;;5049108;28;20211;-78
2021/01/15 03:02:50;;;;;;;5.70;3.60;;;1.10;85.80;;;;;;5049572;28;20630;-79
2021/01/15 03:05:21;;;;;;;4.50;3.88;;;1.00;85.40;;;;;;5049670;28;20231;-78
2021/01/15 03:07:50;;;;;;;3.92;3.55;;;0.90;85.60;;;;;;5048697;28;20555;-79
2021/01/15 03:10:20;;;;;;;6.05;4.43;;;0.80;85.80;;;;;;5048362;28;20215;-78
2021/01/15 03:12:48;;;;;;;4.55;3.90;;;0.80;86.50;;;;;;5048941;28;20204;-78
2021/01/15 03:15:16;;;;;;;4.28;3.85;;;0.80;87.30;;;;;;5049329;28;20208;-78
2021/01/15 03:17:45;;;;;;;4.40;3.88;;;0.80;85.70;;;;;;5048774;28;20481;-78
2021/01/15 03:20:13;;;;;;;4.95;3.72;;;0.90;86.20;;;;;;5048775;28;20235;-78
2021/01/15 03:22:44;;;;;;;4.45;3.45;;;0.80;86.50;;;;;;5049533;28;20560;-78
2021/01/15 03:25:12;;;;;;;6.25;4.40;;;0.80;86.30;;;;;;5049394;28;20207;-78
2021/01/15 03:27:44;;;;;;;4.95;4.00;;;0.80;85.90;;;;;;5052268;28;20207;-78
2021/01/15 03:30:12;;;;;;;3.95;3.65;;;0.70;86.00;;;;;;5052898;28;20216;-78
2021/01/15 03:32:40;;;;;;;3.65;3.35;;;0.70;86.10;;;;;;5051282;28;20206;-78
2021/01/15 03:35:07;;;;;;;3.50;3.20;;;0.70;86.00;;;;;;5052934;28;20553;-78
2021/01/15 03:37:34;;;;;;;4.13;3.20;;;0.70;85.70;;;;;;5052346;28;20272;-78
2021/01/15 03:40:03;;;;;;;5.75;4.05;;;0.80;85.80;;;;;;5053107;28;20212;-78
2021/01/15 03:42:29;;;;;;;3.03;2.80;;;0.70;84.60;;;;;;5053173;28;20204;-78
2021/01/15 03:44:56;;;;;;;5.70;3.47;;;0.80;85.00;;;;;;5052516;28;20215;-78
2021/01/15 03:47:22;;;;;;;4.03;3.72;;;0.70;84.80;;;;;;5052202;28;20215;-79
2021/01/15 03:49:49;;;;;;;3.30;3.00;;;0.70;85.70;;;;;;5052154;28;20211;-78
2021/01/15 03:52:15;;;;;;;3.67;3.15;;;0.60;85.30;;;;;;5051991;28;20196;-78
2021/01/15 03:54:41;;;;;;;3.50;2.97;;;0.60;85.00;;;;;;5052225;28;20238;-78
2021/01/15 03:57:09;;;;;;;4.18;3.78;;;0.60;85.60;;;;;;5051675;28;20211;-79
2021/01/15 03:59:36;;;;;;;4.60;3.63;;;0.60;85.70;;;;;;5052201;28;20210;-78
2021/01/15 04:02:02;;;;;;;3.47;3.17;;;0.60;85.70;;;;;;5051933;28;20302;-78
2021/01/15 04:04:29;;;;;;;3.67;3.38;;;0.50;86.30;;;;;;5052066;28;20266;-78
2021/01/15 04:06:57;;;;;;;3.05;2.75;;;0.60;86.40;;;;;;5052142;28;20208;-78
2021/01/15 04:09:23;;;;;;;3.67;3.38;;;0.60;86.40;;;;;;5052298;28;20286;-78
2021/01/15 04:11:50;;;;;;;6.03;3.95;;;0.50;86.10;;;;;;5052472;28;20214;-78
2021/01/15 04:14:18;;;;;;;6.40;5.30;;;0.50;85.80;;;;;;5051774;28;20738;-78
2021/01/15 04:16:49;;;;;;;7.60;5.88;;;0.40;86.00;;;;;;5051490;28;20203;-78
2021/01/15 04:19:16;;;;;;;11.35;5.93;;;0.40;86.80;;;;;;5050663;28;20223;-79
2021/01/15 04:21:42;;;;;;;9.00;6.70;;;0.40;87.00;;;;;;5051632;28;20239;-78
2021/01/15 04:24:09;;;;;;;8.82;6.40;;;0.40;86.90;;;;;;5050982;28;20192;-78
2021/01/15 04:26:35;;;;;;;8.48;6.15;;;0.50;86.90;;;;;;5052018;28;20306;-78
2021/01/15 04:29:02;;;;;;;7.45;5.30;;;0.30;86.80;;;;;;5050855;28;20200;-79
2021/01/15 04:31:29;;;;;;;6.13;5.30;;;0.30;87.60;;;;;;5048946;28;20270;-79
2021/01/15 04:33:55;;;;;;;3.75;3.40;;;0.20;87.40;;;;;;5051468;28;20611;-79
2021/01/15 04:36:22;;;;;;;5.28;4.47;;;0.20;87.80;;;;;;5051440;28;20204;-79
2021/01/15 04:38:48;;;;;;;5.70;4.55;;;0.10;88.20;;;;;;5050783;28;20216;-79
2021/01/15 04:41:21;;;;;;;7.20;4.25;;;0.10;89.30;;;;;;5052054;28;20231;-79
2021/01/15 04:43:53;;;;;;;4.47;4.07;;;0.10;89.50;;;;;;5051532;28;20204;-79
2021/01/15 04:46:21;;;;;;;4.53;3.80;;;0.00;89.80;;;;;;5050941;28;20282;-79
2021/01/15 04:48:50;;;;;;;5.78;3.95;;;0.00;90.20;;;;;;5050743;28;20231;-79
2021/01/15 04:51:19;;;;;;;5.75;3.92;;;-0.10;90.80;;;;;;5051574;28;20609;-79
2021/01/15 04:53:54;;;;;;;5.85;4.03;;;-0.10;90.70;;;;;;5051527;28;20263;-79
2021/01/15 04:56:31;;;;;;;4.53;4.07;;;-0.20;90.40;;;;;;5041175;28;20216;-79
2021/01/15 04:59:02;;;;;;;4.72;4.32;;;0.20;90.60;;;;;;5050141;28;20243;-79
2021/01/15 05:01:35;;;;;;;4.47;3.65;;;-0.40;90.30;;;;;;5051380;28;20214;-79
2021/01/15 05:04:07;;;;;;;5.60;3.95;;;-0.50;90.40;;;;;;5050636;28;20286;-79
2021/01/15 05:06:47;;;;;;;9.48;4.30;;;-0.50;90.70;;;;;;5051449;28;20291;-79
2021/01/15 05:09:15;;;;;;;8.18;4.13;;;-0.60;90.80;;;;;;5049449;28;20246;-79
2021/01/15 05:11:43;;;;;;;4.72;4.07;;;-0.60;91.00;;;;;;5050982;28;20192;-79
2021/01/15 05:14:11;;;;;;;8.27;4.25;;;-0.60;91.30;;;;;;5051148;28;20257;-79
2021/01/15 05:16:40;;;;;;;5.70;4.47;;;-0.80;91.50;;;;;;5051364;28;20231;-79
2021/01/15 05:19:08;;;;;;;6.65;4.20;;;-0.90;91.70;;;;;;5050577;28;20494;-79
2021/01/15 05:21:35;;;;;;;4.25;3.70;;;-0.70;92.30;;;;;;5050725;28;20764;-79
2021/01/15 05:24:03;;;;;;;6.97;4.50;;;-0.80;91.80;;;;;;5050742;28;20209;-79
2021/01/15 05:26:30;;;;;;;4.55;4.13;;;-0.90;91.70;;;;;;5051493;28;20224;-79
2021/01/15 05:28:56;;;;;;;5.03;4.53;;;-0.90;92.00;;;;;;5050831;28;20715;-80
2021/01/15 05:31:23;;;;;;;6.68;5.30;;;-0.90;91.60;;;;;;5050881;28;20751;-79
2021/01/15 05:34:06;;;;;;;6.70;5.28;;;-0.80;91.80;;;;;;5049657;28;20654;-80
2021/01/15 05:36:34;;;;;;;6.03;5.38;;;0.00;92.00;;;;;;5051281;28;20231;-80
2021/01/15 05:39:09;;;;;;;6.40;5.80;;;-0.90;91.50;;;;;;5050000;28;20226;-80
2021/01/15 05:41:36;;;;;;;6.15;5.20;;;-1.00;91.50;;;;;;5040811;28;20201;-80
2021/01/15 05:44:03;;;;;;;6.70;6.03;;;-0.90;91.60;;;;;;5050777;28;20199;-80
2021/01/15 05:46:29;;;;;;;7.25;5.38;;;-1.20;91.70;;;;;;5050228;28;20232;-80
2021/01/15 05:48:57;;;;;;;8.25;6.10;;;-1.20;92.30;;;;;;5049327;28;20557;-80
2021/01/15 05:51:28;;;;;;;6.80;5.95;;;-1.20;92.20;;;;;;5050920;28;20196;-80
2021/01/15 05:53:57;;;;;;;8.38;5.20;;;-1.20;92.20;;;;;;5049981;28;20246;-80
2021/01/15 05:56:25;;;;;;;7.32;5.32;;;-0.60;92.80;;;;;;5050719;28;20927;-80
2021/01/15 05:59:01;;;;;;;6.20;5.57;;;-1.20;92.30;;;;;;5049099;28;20239;-80
2021/01/15 06:01:46;;;;;;;8.15;5.30;;;-1.20;92.50;;;;;;5050394;28;20665;-80
2021/01/15 06:04:14;;;;;;;5.88;5.28;;;-1.10;93.30;;;;;;5050418;28;20245;-80
2021/01/15 06:06:42;;;;;;;8.20;6.05;;;-1.20;93.10;;;;;;5050260;28;20204;-81
2021/01/15 06:09:10;;;;;;;5.63;5.13;;;-1.30;92.80;;;;;;5048827;28;20243;-81
2021/01/15 06:11:39;;;;;;;12.02;6.72;;;-1.30;92.60;;;;;;5057217;28;20225;-81
2021/01/15 06:14:21;;;;;;;7.05;6.10;;;-1.40;92.40;;;;;;5070668;28;20235;-80
2021/01/15 06:16:48;;;;;;;6.47;5.50;;;-1.20;92.70;;;;;;5066973;28;20241;-80
2021/01/15 06:19:14;;;;;;;9.30;6.30;;;-1.10;92.80;;;;;;5049152;28;20290;-81
2021/01/15 06:21:53;;;;;;;9.48;6.80;;;-0.90;92.60;;;;;;5050101;28;20232;-80
2021/01/15 06:24:23;;;;;;;7.85;5.82;;;-0.90;92.10;;;;;;5050342;28;20211;-80
2021/01/15 06:27:05;;;;;;;12.52;5.50;;;-1.00;91.60;;;;;;5049348;28;20563;-80
2021/01/15 06:29:43;;;;;;;5.40;4.53;;;-1.00;91.50;;;;;;5050156;28;20241;-81
2021/01/15 06:32:11;;;;;;;7.82;4.85;;;-1.10;91.30;;;;;;5048893;28;20211;-80
2021/01/15 06:34:47;;;;;;;6.80;5.97;;;-1.30;91.60;;;;;;5047466;28;20218;-81
2021/01/15 06:37:19;;;;;;;5.97;5.43;;;-1.30;91.90;;;;;;5044307;28;20223;-81
2021/01/15 06:40:03;;;;;;;7.03;6.30;;;-1.20;92.00;;;;;;5048675;28;20284;-81
2021/01/15 06:42:30;;;;;;;7.28;5.75;;;-1.20;92.00;;;;;;5051361;28;20204;-81
2021/01/15 06:44:57;;;;;;;9.80;5.85;;;-1.30;91.70;;;;;;5049779;28;20291;-82
2021/01/15 06:47:27;;;;;;;4.10;3.80;;;-1.40;91.70;;;;;;5050015;28;20200;-81
2021/01/15 06:49:57;;;;;;;5.85;5.15;;;-1.40;92.00;;;;;;5033556;28;20231;-82
2021/01/15 06:52:27;;;;;;;7.93;5.30;;;-1.10;92.10;;;;;;5050686;28;20261;-81
2021/01/15 06:54:55;;;;;;;5.43;4.50;;;-1.30;91.80;;;;;;5050996;28;20204;-82
2021/01/15 06:57:30;;;;;;;10.13;5.90;;;-1.30;91.80;;;;;;5050715;28;20601;-82
2021/01/15 06:59:58;;;;;;;6.55;5.43;;;-1.10;91.80;;;;;;5052939;28;20203;-81
2021/01/15 07:02:49;;;;;;;6.43;5.22;;;-1.10;91.40;;;;;;5054721;28;20223;-81
2021/01/15 07:05:20;;;;;;;9.30;5.45;;;-0.80;90.90;;;;;;5054820;28;20291;-81
2021/01/15 07:07:47;;;;;;;9.65;6.05;;;-1.00;90.80;;;;;;5053581;28;20196;-82
2021/01/15 07:10:14;;;;;;;8.57;6.35;;;-0.90;91.00;;;;;;5055183;28;20215;-82
2021/01/15 07:12:43;;;;;;;9.05;5.65;;;-1.00;90.70;;;;;;5055619;28;20211;-81
2021/01/15 07:15:14;;;;;;;8.63;5.68;;;-1.00;90.70;;;;;;5055296;28;20200;-82
2021/01/15 07:17:46;;;;;;;10.77;6.00;;;-1.00;90.60;;;;;;5054632;28;20224;-82
2021/01/15 07:20:13;;;;;;;10.82;6.75;;;-0.90;90.60;;;;;;5054899;28;20195;-82
2021/01/15 07:22:51;;;;;;;6.47;5.88;;;-0.80;90.50;;;;;;5054981;28;20203;-81
2021/01/15 07:25:18;;;;;;;6.22;5.53;;;-0.90;90.70;;;;;;5055292;28;20673;-82
2021/01/15 07:27:46;;;;;;;9.98;7.07;;;-1.00;90.90;;;;;;5053431;28;20227;-82
2021/01/15 07:30:15;;;;;;;8.68;7.15;;;-1.00;90.70;;;;;;5055137;28;20196;-82
2021/01/15 07:32:42;;;;;;;7.43;6.60;;;-0.90;91.00;;;;;;5053150;28;20207;-83
2021/01/15 07:35:16;;;;;;;11.95;7.35;;;-0.90;90.60;;;;;;5053822;28;20199;-83
2021/01/15 07:37:42;;;;;;;8.30;6.93;;;-0.90;90.70;;;;;;5052370;28;20220;-83
2021/01/15 07:40:15;;;;;;;9.40;6.45;;;-0.90;90.90;;;;;;5053749;28;20669;-83
2021/01/15 07:43:00;;;;;;;15.88;7.78;;;-0.90;90.80;;;;;;5052570;28;20200;-83
2021/01/15 07:45:55;;;;;;;10.18;7.97;;;-0.90;90.90;;;;;;5053141;28;20210;-83
2021/01/15 07:48:22;;;;;;;9.98;7.50;;;-0.90;90.70;;;;;;5033270;28;20204;-82
2021/01/15 07:50:50;;;;;;;9.20;7.40;;;-0.80;90.80;;;;;;5044101;28;20210;-83
2021/01/15 07:53:21;;;;;;;10.40;7.95;;;-0.10;90.90;;;;;;5033092;28;20212;-82
2021/01/15 07:55:49;;;;;;;8.02;7.18;;;-0.70;90.50;;;;;;5047551;28;20564;-82
2021/01/15 07:58:18;;;;;;;13.05;7.88;;;-0.80;90.50;;;;;;5052710;28;20227;-83
2021/01/15 08:00:46;;;;;;;14.25;8.48;;;-0.70;90.60;;;;;;5053220;28;20192;-83
2021/01/15 08:03:13;;;;;;;10.88;7.45;;;-0.70;90.60;;;;;;5053040;28;20208;-83
2021/01/15 08:05:40;;;;;;;9.45;7.63;;;-0.60;90.40;;;;;;5053106;28;20214;-82
2021/01/15 08:08:10;;;;;;;18.42;8.30;;;-0.50;90.50;;;;;;5051839;28;20740;-83
2021/01/15 08:10:45;;;;;;;8.43;7.05;;;-0.40;90.50;;;;;;5052693;28;20646;-83
2021/01/15 08:13:23;;;;;;;12.68;7.90;;;-0.30;90.50;;;;;;5052658;28;20609;-83
2021/01/15 08:15:51;;;;;;;9.68;7.35;;;-0.40;90.50;;;;;;5052521;28;20712;-82
2021/01/15 08:18:18;;;;;;;11.57;7.93;;;0.30;90.80;;;;;;5052411;28;20242;-83
2021/01/15 08:20:49;;;;;;;11.35;7.82;;;-0.30;90.20;;;;;;5052569;28;20258;-83
2021/01/15 08:23:23;;;;;;;11.15;8.40;;;-0.30;90.30;;;;;;5045289;28;20685;-83
2021/01/15 08:25:54;;;;;;;12.88;7.70;;;-0.30;90.20;;;;;;5052852;28;20207;-83
2021/01/15 08:28:22;;;;;;;11.70;9.18;;;-0.20;90.40;;;;;;5031877;28;20727;-82
2021/01/15 08:30:58;;;;;;;11.88;8.90;;;-0.10;90.20;;;;;;5036686;28;20203;-83
2021/01/15 08:33:25;;;;;;;10.52;8.73;;;0.00;90.10;;;;;;5051446;28;20207;-83
2021/01/15 08:35:54;;;;;;;11.00;8.35;;;0.10;90.10;;;;;;5052313;28;20235;-82
2021/01/15 08:38:34;;;;;;;10.60;9.25;;;0.10;90.00;;;;;;5051696;28;20758;-83
2021/01/15 08:41:12;;;;;;;10.60;9.32;;;0.20;90.00;;;;;;5052275;28;20199;-83
2021/01/15 08:43:39;;;;;;;11.85;9.10;;;0.30;89.20;;;;;;5052840;28;20203;-83
2021/01/15 08:46:06;;;;;;;13.80;9.73;;;0.30;88.80;;;;;;5052626;28;20203;-83
2021/01/15 08:48:32;;;;;;;11.35;9.35;;;0.30;88.60;;;;;;5052278;28;20212;-83
2021/01/15 08:51:09;;;;;;;12.48;8.45;;;0.30;88.00;;;;;;5052281;28;20204;-83
2021/01/15 08:54:04;;;;;;;14.82;9.65;;;0.40;88.30;;;;;;5053833;28;20202;-83
2021/01/15 08:56:42;;;;;;;11.68;8.77;;;0.30;88.00;;;;;;5059312;28;20223;-84
2021/01/15 08:59:11;;;;;;;10.00;7.78;;;0.40;87.80;;;;;;5059910;28;20220;-83
2021/01/15 09:01:39;;;;;;;10.40;8.05;;;0.50;88.00;;;;;;5056200;28;21464;-83
2021/01/15 09:04:07;;;;;;;11.40;8.07;;;0.40;88.00;;;;;;5043161;28;20206;-83
2021/01/15 09:06:35;;;;;;;11.85;8.85;;;0.50;88.80;;;;;;5068261;28;20210;-83
2021/01/15 09:09:04;;;;;;;13.05;8.73;;;0.50;87.80;;;;;;5062356;28;20750;-82
2021/01/15 09:11:32;;;;;;;15.60;8.38;;;0.50;87.90;;;;;;5054660;28;20299;-83
2021/01/15 09:13:59;;;;;;;10.15;8.43;;;0.50;87.70;;;;;;5065375;28;20618;-82
2021/01/15 09:16:28;;;;;;;10.10;8.82;;;0.50;87.40;;;;;;5051564;28;20212;-81
2021/01/15 09:18:57;;;;;;;11.00;9.07;;;0.50;87.30;;;;;;5050848;28;20220;-82
2021/01/15 09:21:23;;;;;;;10.10;7.25;;;0.70;87.20;;;;;;5051507;28;20575;-81
2021/01/15 09:23:50;;;;;;;10.45;7.82;;;0.70;86.90;;;;;;5050820;28;20207;-82
2021/01/15 09:26:18;;;;;;;9.65;7.90;;;0.70;86.40;;;;;;5052254;28;20876;-82
2021/01/15 09:28:44;;;;;;;10.75;7.75;;;0.70;86.40;;;;;;5051289;28;20204;-82
2021/01/15 09:31:11;;;;;;;12.02;8.35;;;0.90;86.30;;;;;;5051319;28;20688;-82
2021/01/15 09:33:49;;;;;;;10.52;8.05;;;1.10;86.40;;;;;;5050238;28;20238;-82
2021/01/15 09:36:24;;;;;;;19.52;9.00;;;1.10;86.30;;;;;;5051242;28;20199;-82
2021/01/15 09:38:52;;;;;;;10.95;9.38;;;1.10;86.20;;;;;;5050976;28;20273;-82
2021/01/15 09:41:18;;;;;;;11.63;9.07;;;1.20;86.40;;;;;;5050742;28;20204;-82
2021/01/15 09:43:46;;;;;;;13.38;9.45;;;1.20;86.20;;;;;;5051091;28;20673;-82
2021/01/15 09:46:23;;;;;;;13.68;9.43;;;1.30;86.00;;;;;;5050459;28;20200;-82
2021/01/15 09:48:51;;;;;;;14.00;10.05;;;0.80;86.70;;;;;;5051152;28;20602;-82
2021/01/15 09:51:21;;;;;;;10.48;8.40;;;0.90;88.00;;;;;;5050710;28;20203;-82
2021/01/15 09:53:47;;;;;;;11.48;8.95;;;0.50;87.00;;;;;;5050979;28;20214;-82
2021/01/15 09:56:25;;;;;;;14.48;9.02;;;0.70;89.10;;;;;;5051032;28;20206;-82
2021/01/15 09:58:52;;;;;;;10.60;9.43;;;0.90;88.70;;;;;;5050720;28;20783;-82
2021/01/15 10:01:18;;;;;;;13.98;9.30;;;1.10;88.60;;;;;;5050483;28;20200;-82
2021/01/15 10:03:45;;;;;;;16.95;8.88;;;0.70;87.10;;;;;;5050698;28;20265;-81
2021/01/15 10:06:16;;;;;;;11.85;10.48;;;0.70;89.00;;;;;;5050776;28;20196;-82
2021/01/15 10:08:43;;;;;;;12.27;10.00;;;0.90;89.80;;;;;;5051064;28;20688;-82
2021/01/15 10:11:18;;;;;;;14.88;12.05;;;0.40;88.30;;;;;;5050001;28;20241;-82
2021/01/15 10:13:44;;;;;;;13.48;10.65;;;0.30;89.90;;;;;;5051004;28;20215;-81
2021/01/15 10:16:11;;;;;;;13.38;9.77;;;0.40;90.00;;;;;;5051051;28;21166;-82
2021/01/15 10:18:38;;;;;;;12.68;9.93;;;0.00;90.10;;;;;;5051075;28;20224;-82
2021/01/15 10:21:05;;;;;;;18.48;11.07;;;0.30;90.60;;;;;;5050794;28;20208;-83
2021/01/15 10:23:40;;;;;;;10.93;9.57;;;0.60;90.40;;;;;;5050444;28;20669;-83
2021/01/15 10:26:06;;;;;;;12.27;8.70;;;0.00;89.60;;;;;;5051354;28;20199;-83
2021/01/15 10:28:33;;;;;;;13.38;10.23;;;0.10;90.90;;;;;;5051484;28;20207;-83
2021/01/15 10:30:59;;;;;;;9.70;8.70;;;0.30;90.90;;;;;;5051100;28;20208;-83
2021/01/15 10:33:26;;;;;;;12.23;8.95;;;0.00;90.20;;;;;;5051063;28;20199;-82
2021/01/15 10:35:53;;;;;;;12.05;9.43;;;0.20;90.70;;;;;;5053921;28;20211;-82
2021/01/15 10:38:19;;;;;;;10.60;8.48;;;0.80;90.50;;;;;;5055081;28;20626;-83
2021/01/15 10:40:50;;;;;;;12.30;9.25;;;0.20;96.10;;;;;;5055786;28;20212;-82
2021/01/15 10:43:19;;;;;;;12.55;9.18;;;0.10;90.00;;;;;;5054814;28;20200;-82
2021/01/15 10:45:50;;;;;;;14.90;9.07;;;0.00;89.80;;;;;;5054689;28;20208;-82
2021/01/15 10:48:17;;;;;;;11.15;9.27;;;0.10;90.30;;;;;;5054963;28;20673;-83
2021/01/15 10:50:43;;;;;;;15.32;10.32;;;0.40;90.50;;;;;;5053742;28;20204;-80
2021/01/15 10:53:12;;;;;;;11.30;8.85;;;0.70;90.30;;;;;;5054426;28;20690;-81
2021/01/15 10:55:39;;;;;;;14.05;10.00;;;0.70;89.70;;;;;;5054232;28;20211;-81
2021/01/15 10:58:07;;;;;;;12.43;9.93;;;0.90;89.50;;;;;;5055070;28;20224;-81
2021/01/15 11:00:35;;;;;;;12.48;9.52;;;0.40;88.40;;;;;;5054619;28;20211;-81
2021/01/15 11:03:01;;;;;;;11.68;10.38;;;0.10;90.10;;;;;;5054080;28;20231;-81
2021/01/15 11:05:28;;;;;;;13.27;10.75;;;0.00;90.40;;;;;;5053846;28;20208;-81
2021/01/15 11:07:54;;;;;;;13.68;9.93;;;-0.20;90.50;;;;;;5054514;28;20218;-82
2021/01/15 11:10:21;;;;;;;12.93;9.57;;;0.00;90.80;;;;;;5053941;28;20720;-81
2021/01/15 11:12:47;;;;;;;15.02;11.00;;;0.10;90.80;;;;;;5053259;28;20204;-81
2021/01/15 11:15:15;;;;;;;11.15;8.80;;;0.30;90.70;;;;;;5053134;28;20207;-81
2021/01/15 11:17:41;;;;;;;11.90;10.38;;;0.70;90.70;;;;;;5051139;28;20219;-82
2021/01/15 11:20:08;;;;;;;11.27;9.80;;;1.00;90.20;;;;;;5053178;28;20200;-81
2021/01/15 11:22:36;;;;;;;15.05;10.40;;;0.90;88.00;;;;;;5054573;28;20253;-81
2021/01/15 11:25:04;;;;;;;13.98;10.45;;;0.80;88.90;;;;;;5053845;28;20219;-80
2021/01/15 11:27:32;;;;;;;12.95;9.75;;;1.00;89.50;;;;;;5054103;28;20208;-81
2021/01/15 11:29:58;;;;;;;15.10;9.10;;;0.80;88.00;;;;;;5053594;28;20277;-81
2021/01/15 11:32:28;;;;;;;10.60;9.50;;;0.70;88.50;;;;;;5053604;28;20204;-82
2021/01/15 11:34:55;;;;;;;14.50;9.68;;;1.10;89.00;;;;;;5053606;28;20270;-81
2021/01/15 11:37:23;;;;;;;12.30;9.68;;;1.30;87.30;;;;;;5053090;28;20203;-81
2021/01/15 11:39:49;;;;;;;12.07;8.95;;;1.40;87.10;;;;;;5052738;28;20215;-81
2021/01/15 11:42:16;;;;;;;15.25;9.63;;;1.50;86.40;;;;;;5053704;28;20212;-81
2021/01/15 11:44:42;;;;;;;13.23;9.20;;;1.50;85.30;;;;;;5053012;28;20661;-81
2021/01/15 11:47:09;;;;;;;13.07;9.07;;;1.40;86.20;;;;;;5052239;28;20223;-81
2021/01/15 11:49:37;;;;;;;13.98;10.43;;;1.50;86.60;;;;;;5049471;28;20681;-80
2021/01/15 11:52:07;;;;;;;16.50;10.60;;;1.50;87.20;;;;;;5053273;28;20223;-81
2021/01/15 11:54:36;;;;;;;12.98;9.25;;;1.60;86.40;;;;;;5052371;28;20224;-82
2021/01/15 11:57:02;;;;;;;10.68;9.27;;;1.40;86.20;;;;;;5052343;28;20553;-81
2021/01/15 11:59:29;;;;;;;12.65;8.68;;;1.50;86.90;;;;;;5053119;28;20251;-82
2021/01/15 12:01:56;;;;;;;16.77;9.63;;;1.60;87.10;;;;;;5053013;28;20215;-81
2021/01/15 12:04:22;;;;;;;16.77;10.57;;;1.70;85.20;;;;;;5053731;28;20307;-81
2021/01/15 12:06:52;;;;;;;13.82;10.23;;;1.60;86.70;;;;;;5052840;28;20129;-81
2021/01/15 12:09:18;;;;;;;13.43;10.82;;;1.70;85.80;;;;;;5053102;28;20550;-81
2021/01/15 12:11:45;;;;;;;11.63;9.55;;;1.70;85.30;;;;;;5052402;28;20257;-81
2021/01/15 12:14:12;;;;;;;10.77;8.73;;;1.80;84.50;;;;;;5051861;28;20277;-81
2021/01/15 12:16:39;;;;;;;14.27;10.25;;;1.90;83.80;;;;;;5051737;28;20566;-81
2021/01/15 12:19:07;;;;;;;13.55;9.45;;;1.80;84.30;;;;;;5051045;28;20297;-81
2021/01/15 12:21:34;;;;;;;13.60;10.88;;;1.90;85.30;;;;;;5052712;28;20200;-81
2021/01/15 12:24:03;;;;;;;15.55;10.75;;;2.10;84.90;;;;;;5052250;28;20200;-81
2021/01/15 12:26:30;;;;;;;14.05;11.05;;;2.10;85.30;;;;;;5052866;28;20661;-81
2021/01/15 12:28:57;;;;;;;16.08;12.00;;;2.00;85.60;;;;;;5051925;28;20200;-82
2021/01/15 12:31:23;;;;;;;13.30;10.85;;;1.90;85.40;;;;;;5052197;28;20196;-81
2021/01/15 12:33:50;;;;;;;16.88;11.68;;;1.70;85.40;;;;;;5052784;28;20218;-81
2021/01/15 12:36:17;;;;;;;17.63;11.23;;;1.50;86.10;;;;;;5052147;28;20557;-81
2021/01/15 12:38:43;;;;;;;13.68;10.05;;;1.60;86.40;;;;;;5051936;28;20228;-82
2021/01/15 12:41:11;;;;;;;14.65;10.40;;;1.80;85.20;;;;;;5051121;28;20219;-81
2021/01/15 12:43:37;;;;;;;13.02;9.27;;;1.70;85.20;;;;;;5052245;28;20228;-81
2021/01/15 12:46:03;;;;;;;21.65;11.38;;;1.90;84.10;;;;;;5051624;28;20731;-82
2021/01/15 12:48:30;;;;;;;15.30;11.00;;;2.00;83.30;;;;;;5051355;28;20207;-82
2021/01/15 12:50:56;;;;;;;12.40;9.40;;;1.80;84.30;;;;;;5052407;28;20200;-81
2021/01/15 12:53:23;;;;;;;11.38;8.80;;;1.80;91.00;;;;;;5052528;28;20215;-81
2021/01/15 12:55:49;;;;;;;13.38;9.30;;;1.90;84.20;;;;;;5051436;28;20215;-81
2021/01/15 12:58:16;;;;;;;15.77;10.27;;;2.10;83.20;;;;;;5051408;28;20594;-81
2021/01/15 13:00:44;;;;;;;22.83;10.80;;;2.20;83.30;;;;;;5052056;28;20253;-82